createdAt,value
2023-05-02T00:00:48.109Z,101670.13
2023-05-02T00:03:14.784Z,101670.00
2023-05-02T00:05:41.363Z,101671.59
2023-05-02T00:08:08.027Z,101670.13
2023-05-02T00:10:34.888Z,101669.06
2023-05-02T00:13:01.445Z,101671.50
2023-05-02T00:15:28.011Z,101675.75
2023-05-02T00:17:54.569Z,101681.50
2023-05-02T00:20:21.377Z,101673.75
2023-05-02T00:22:47.847Z,101675.00
2023-05-02T00:25:16.373Z,101669.44
2023-05-02T00:27:46.499Z,101673.53
2023-05-02T00:30:14.028Z,101669.88
2023-05-02T00:32:40.768Z,101675.94
2023-05-02T00:35:08.161Z,101675.25
2023-05-02T00:37:34.889Z,101680.97
2023-05-02T00:40:02.283Z,101678.47
2023-05-02T00:42:32.013Z,101684.19
2023-05-02T00:44:58.508Z,101680.41
2023-05-02T00:47:25.043Z,101673.31
2023-05-02T00:49:51.665Z,101677.09
2023-05-02T00:52:18.595Z,101667.50
2023-05-02T00:54:45.466Z,101669.53
2023-05-02T00:57:11.958Z,101671.22
2023-05-02T00:59:39.022Z,101673.22
2023-05-02T01:02:20.489Z,101672.19
2023-05-02T01:05:13.515Z,101678.56
2023-05-02T01:08:00.725Z,101677.78
2023-05-02T01:10:56.059Z,101685.41
2023-05-02T01:13:26.720Z,101684.34
2023-05-02T01:15:56.122Z,101682.66
2023-05-02T01:18:30.498Z,101676.03
2023-05-02T01:21:10.613Z,101688.63
2023-05-02T01:24:04.952Z,101676.72
2023-05-02T01:26:52.946Z,101687.84
2023-05-02T01:29:22.832Z,101692.66
2023-05-02T01:31:50.637Z,101700.09
2023-05-02T01:34:20.033Z,101703.03
2023-05-02T01:36:50.385Z,101696.66
2023-05-02T01:39:21.153Z,101700.41
2023-05-02T01:41:54.730Z,101696.22
2023-05-02T01:44:23.512Z,101704.66
2023-05-02T01:46:53.081Z,101705.97
2023-05-02T01:49:20.928Z,101701.75
2023-05-02T01:51:50.271Z,101705.09
2023-05-02T01:54:18.624Z,101708.16
2023-05-02T01:56:46.491Z,101723.78
2023-05-02T01:59:16.977Z,101731.44
2023-05-02T02:01:45.029Z,101727.34
2023-05-02T02:04:14.883Z,101727.69
2023-05-02T02:06:47.074Z,101734.50
2023-05-02T02:09:14.511Z,101733.81
2023-05-02T02:11:49.213Z,101745.78
2023-05-02T02:14:21.727Z,101749.25
2023-05-02T02:16:50.841Z,101742.56
2023-05-02T02:19:18.641Z,101750.66
2023-05-02T02:21:48.099Z,101746.78
2023-05-02T02:24:18.559Z,101749.66
2023-05-02T02:26:45.021Z,101762.72
2023-05-02T02:29:11.907Z,101746.44
2023-05-02T02:31:39.804Z,101753.78
2023-05-02T02:34:06.612Z,101763.84
2023-05-02T02:36:35.684Z,101768.78
2023-05-02T02:39:27.940Z,101762.75
2023-05-02T02:42:10.057Z,101760.16
2023-05-02T02:45:01.148Z,101769.19
2023-05-02T02:47:36.388Z,101777.41
2023-05-02T02:50:35.988Z,101781.41
2023-05-02T02:53:06.156Z,101781.56
2023-05-02T02:55:57.781Z,101786.41
2023-05-02T02:58:39.457Z,101782.69
2023-05-02T03:01:12.177Z,101794.38
2023-05-02T03:03:40.989Z,101790.28
2023-05-02T03:06:07.715Z,101792.00
2023-05-02T03:08:41.340Z,101795.81
2023-05-02T03:11:08.537Z,101790.41
2023-05-02T03:13:36.219Z,101798.09
2023-05-02T03:16:31.315Z,101800.28
2023-05-02T03:18:58.157Z,101805.69
2023-05-02T03:21:24.590Z,101806.56
2023-05-02T03:23:50.998Z,101808.56
2023-05-02T03:26:17.643Z,101810.00
2023-05-02T03:28:46.886Z,101817.53
2023-05-02T03:31:14.750Z,101814.56
2023-05-02T03:33:41.522Z,101819.69
2023-05-02T03:36:08.261Z,101836.03
2023-05-02T03:38:34.780Z,101826.66
2023-05-02T03:41:01.393Z,101829.63
2023-05-02T03:43:27.852Z,101836.63
2023-05-02T03:45:54.264Z,101836.63
2023-05-02T03:48:20.804Z,101843.88
2023-05-02T03:50:47.602Z,101842.44
2023-05-02T03:53:16.119Z,101838.59
2023-05-02T03:55:43.426Z,101846.69
2023-05-02T03:58:13.115Z,101839.16
2023-05-02T04:00:39.792Z,101849.69
2023-05-02T04:03:07.257Z,101851.41
2023-05-02T04:05:33.844Z,101853.69
2023-05-02T04:08:01.774Z,101860.22
2023-05-02T04:10:28.194Z,101861.78
2023-05-02T04:12:54.702Z,101861.78
2023-05-02T04:15:21.157Z,101864.06
2023-05-02T04:17:47.708Z,101864.91
2023-05-02T04:20:14.284Z,101872.44
2023-05-02T04:22:40.909Z,101874.16
2023-05-02T04:25:07.874Z,101867.31
2023-05-02T04:27:34.289Z,101882.00
2023-05-02T04:30:00.996Z,101885.97
2023-05-02T04:32:27.955Z,101891.66
2023-05-02T04:34:54.582Z,101888.28
2023-05-02T04:37:21.302Z,101895.94
2023-05-02T04:39:47.750Z,101890.38
2023-05-02T04:42:14.314Z,101898.09
2023-05-02T04:44:40.777Z,101894.94
2023-05-02T04:47:07.269Z,101900.22
2023-05-02T04:49:33.736Z,101896.66
2023-05-02T04:52:00.294Z,101907.56
2023-05-02T04:54:26.865Z,101910.72
2023-05-02T04:56:53.452Z,101908.72
2023-05-02T04:59:20.015Z,101918.13
2023-05-02T05:01:46.584Z,101923.38
2023-05-02T05:04:13.267Z,101922.13
2023-05-02T05:06:40.122Z,101934.41
2023-05-02T05:09:07.147Z,101932.78
2023-05-02T05:11:33.600Z,101932.50
2023-05-02T05:14:00.761Z,101942.03
2023-05-02T05:16:27.245Z,101946.47
2023-05-02T05:18:54.045Z,101953.59
2023-05-02T05:21:20.782Z,101951.81
2023-05-02T05:23:47.690Z,101959.31
2023-05-02T05:26:16.242Z,101958.25
2023-05-02T05:28:43.945Z,101958.78
2023-05-02T05:31:13.073Z,101961.50
2023-05-02T05:33:41.021Z,101968.63
2023-05-02T05:36:08.723Z,101972.75
2023-05-02T05:38:35.841Z,101971.19
2023-05-02T05:41:02.679Z,101975.34
2023-05-02T05:43:29.749Z,101980.03
2023-05-02T05:45:56.372Z,101991.03
2023-05-02T05:48:23.491Z,101996.13
2023-05-02T05:50:51.988Z,101998.44
2023-05-02T05:53:19.356Z,102005.94
2023-05-02T05:55:45.942Z,102007.06
2023-05-02T05:58:12.679Z,102010.50
2023-05-02T06:00:40.091Z,102017.66
2023-05-02T06:03:09.630Z,102025.03
2023-05-02T06:05:37.002Z,102032.47
2023-05-02T06:08:03.619Z,102029.34
2023-05-02T06:10:31.423Z,102032.19
2023-05-02T06:12:58.028Z,102026.25
2023-05-02T06:15:24.510Z,102040.47
2023-05-02T06:17:52.047Z,102040.03
2023-05-02T06:20:18.943Z,102049.06
2023-05-02T06:22:45.432Z,102044.91
2023-05-02T06:25:11.947Z,102047.94
2023-05-02T06:27:38.376Z,102057.31
2023-05-02T06:30:06.076Z,102063.31
2023-05-02T06:32:32.746Z,102067.47
2023-05-02T06:34:59.251Z,102072.50
2023-05-02T06:37:25.831Z,102080.91
2023-05-02T06:39:52.301Z,102081.75
2023-05-02T06:42:18.819Z,102091.09
2023-05-02T06:44:45.438Z,102100.16
2023-05-02T06:47:12.136Z,102096.00
2023-05-02T06:49:38.773Z,102105.16
2023-05-02T06:52:05.340Z,102113.69
2023-05-02T06:54:31.751Z,102107.16
2023-05-02T06:56:59.299Z,102110.06
2023-05-02T06:59:26.305Z,102118.34
2023-05-02T07:01:52.694Z,102116.34
2023-05-02T07:04:19.186Z,102124.34
2023-05-02T07:06:46.926Z,102130.31
2023-05-02T07:09:13.436Z,102131.50
2023-05-02T07:11:40.008Z,102130.50
2023-05-02T07:14:06.592Z,102129.47
2023-05-02T07:16:33.287Z,102133.91
2023-05-02T07:19:00.180Z,102138.44
2023-05-02T07:21:26.629Z,102142.16
2023-05-02T07:23:55.277Z,102148.28
2023-05-02T07:26:23.542Z,102150.75
2023-05-02T07:28:50.113Z,102149.47
2023-05-02T07:31:18.838Z,102154.03
2023-05-02T07:33:45.531Z,102156.16
2023-05-02T07:36:11.973Z,102151.91
2023-05-02T07:38:38.365Z,102162.28
2023-05-02T07:41:04.787Z,102147.88
2023-05-02T07:43:31.426Z,102159.44
2023-05-02T07:45:58.328Z,102163.81
2023-05-02T07:48:26.168Z,102170.09
2023-05-02T07:50:54.140Z,102177.31
2023-05-02T07:53:20.520Z,102176.63
2023-05-02T07:55:47.584Z,102187.81
2023-05-02T07:58:14.001Z,102178.09
2023-05-02T08:00:40.510Z,102188.75
2023-05-02T08:03:07.854Z,102186.22
2023-05-02T08:05:34.426Z,102197.81
2023-05-02T08:08:01.927Z,102193.34
2023-05-02T08:10:28.612Z,102201.31
2023-05-02T08:12:55.188Z,102201.53
2023-05-02T08:15:21.660Z,102207.47
2023-05-02T08:17:48.216Z,102215.31
2023-05-02T08:20:14.749Z,102214.41
2023-05-02T08:22:41.250Z,102214.19
2023-05-02T08:25:08.100Z,102218.13
2023-05-02T08:27:35.550Z,102221.59
2023-05-02T08:30:02.110Z,102222.88
2023-05-02T08:32:30.157Z,102214.22
2023-05-02T08:34:59.782Z,102219.94
2023-05-02T08:37:26.303Z,102214.34
2023-05-02T08:39:52.726Z,102229.50
2023-05-02T08:42:20.744Z,102224.44
2023-05-02T08:44:48.901Z,102232.47
2023-05-02T08:47:16.076Z,102230.50
2023-05-02T08:49:43.020Z,102239.47
2023-05-02T08:52:12.150Z,102229.03
2023-05-02T08:54:39.058Z,102245.63
2023-05-02T08:57:05.886Z,102244.50
2023-05-02T08:59:32.468Z,102257.88
2023-05-02T09:02:12.583Z,102252.66
2023-05-02T09:04:42.246Z,102255.47
2023-05-02T09:07:10.721Z,102257.47
2023-05-02T09:09:37.720Z,102263.91
2023-05-02T09:12:04.249Z,102268.91
2023-05-02T09:14:30.787Z,102280.47
2023-05-02T09:17:00.945Z,102270.81
2023-05-02T09:19:27.870Z,102274.09
2023-05-02T09:22:01.315Z,102261.59
2023-05-02T09:24:29.071Z,102275.09
2023-05-02T09:26:58.610Z,102282.13
2023-05-02T09:29:25.445Z,102281.50
2023-05-02T09:31:56.133Z,102294.16
2023-05-02T09:34:24.061Z,102294.72
2023-05-02T09:36:53.800Z,102291.19
2023-05-02T09:39:26.090Z,102291.09
2023-05-02T09:41:53.028Z,102294.78
2023-05-02T09:44:22.272Z,102294.34
2023-05-02T09:46:51.073Z,102294.41
2023-05-02T09:49:19.033Z,102291.00
2023-05-02T09:51:47.390Z,102293.53
2023-05-02T09:54:36.407Z,102292.25
2023-05-02T09:57:03.737Z,102297.56
2023-05-02T09:59:30.314Z,102308.00
2023-05-02T10:02:03.739Z,102308.78
2023-05-02T10:04:32.263Z,102307.84
2023-05-02T10:07:00.076Z,102303.97
2023-05-02T10:09:32.507Z,102305.78
2023-05-02T10:12:06.715Z,102299.84
2023-05-02T10:14:39.513Z,102300.91
2023-05-02T10:17:13.283Z,102296.72
2023-05-02T10:19:53.600Z,102302.84
2023-05-02T10:22:20.366Z,102312.78
2023-05-02T10:24:49.645Z,102311.00
2023-05-02T10:27:16.599Z,102316.84
2023-05-02T10:29:44.136Z,102315.41
2023-05-02T10:32:11.245Z,102320.22
2023-05-02T10:34:40.390Z,102311.31
2023-05-02T10:37:06.931Z,102311.06
2023-05-02T10:39:33.919Z,102309.38
2023-05-02T10:42:03.407Z,102313.84
2023-05-02T10:44:37.972Z,102319.81
2023-05-02T10:47:24.460Z,102320.97
2023-05-02T10:50:01.564Z,102307.59
2023-05-02T10:52:38.085Z,102313.53
2023-05-02T10:55:24.080Z,102322.00
2023-05-02T10:58:08.848Z,102324.19
2023-05-02T11:00:35.368Z,102315.56
2023-05-02T11:03:02.661Z,102301.88
2023-05-02T11:05:29.573Z,102311.94
2023-05-02T11:08:14.918Z,102313.84
2023-05-02T11:10:41.555Z,102314.91
2023-05-02T11:13:07.976Z,102323.38
2023-05-02T11:15:34.371Z,102331.06
2023-05-02T11:18:08.903Z,102328.47
2023-05-02T11:20:36.918Z,102331.38
2023-05-02T11:23:35.519Z,102324.75
2023-05-02T11:26:22.257Z,102327.81
2023-05-02T11:28:49.152Z,102319.28
2023-05-02T11:31:27.643Z,102331.56
2023-05-02T11:33:58.229Z,102322.13
2023-05-02T11:36:33.664Z,102324.75
2023-05-02T11:39:02.054Z,102324.03
2023-05-02T11:41:44.404Z,102318.59
2023-05-02T11:44:10.915Z,102315.72
2023-05-02T11:46:38.558Z,102317.50
2023-05-02T11:49:06.951Z,102313.75
2023-05-02T11:51:35.719Z,102321.47
2023-05-02T11:54:02.595Z,102323.94
2023-05-02T11:56:29.238Z,102325.53
2023-05-02T11:59:03.374Z,102323.44
2023-05-02T12:01:30.853Z,102309.44
2023-05-02T12:04:05.679Z,102329.91
2023-05-02T12:06:32.294Z,102328.03
2023-05-02T12:09:16.155Z,102325.66
2023-05-02T12:11:43.635Z,102342.56
2023-05-02T12:14:10.189Z,102340.22
2023-05-02T12:16:37.018Z,102345.19
2023-05-02T12:19:04.265Z,102344.25
2023-05-02T12:21:33.105Z,102342.00
2023-05-02T12:24:01.316Z,102354.34
2023-05-02T12:26:33.086Z,102351.66
2023-05-02T12:29:00.897Z,102351.00
2023-05-02T12:31:29.469Z,102364.41
2023-05-02T12:33:58.136Z,102361.09
2023-05-02T12:36:25.214Z,102366.25
2023-05-02T12:38:59.263Z,102364.47
2023-05-02T12:41:36.272Z,102366.41
2023-05-02T12:44:03.572Z,102364.97
2023-05-02T12:46:31.456Z,102359.25
2023-05-02T12:49:02.772Z,102366.00
2023-05-02T12:51:31.457Z,102365.88
2023-05-02T12:53:57.960Z,102366.63
2023-05-02T12:56:24.698Z,102367.16
2023-05-02T12:58:51.360Z,102381.22
2023-05-02T13:01:17.888Z,102379.22
2023-05-02T13:03:44.533Z,102383.69
2023-05-02T13:06:11.442Z,102382.47
2023-05-02T13:08:38.025Z,102382.88
2023-05-02T13:11:04.570Z,102392.53
2023-05-02T13:13:32.623Z,102382.53
2023-05-02T13:15:59.157Z,102393.75
2023-05-02T13:18:25.869Z,102391.16
2023-05-02T13:20:52.421Z,102387.34
2023-05-02T13:23:18.965Z,102390.66
2023-05-02T13:25:45.741Z,102394.53
2023-05-02T13:28:12.216Z,102390.00
2023-05-02T13:30:38.649Z,102403.94
2023-05-02T13:33:05.154Z,102396.94
2023-05-02T13:35:33.375Z,102398.88
2023-05-02T13:38:01.303Z,102399.94
2023-05-02T13:40:28.195Z,102402.94
2023-05-02T13:42:54.760Z,102397.06
2023-05-02T13:45:21.377Z,102396.09
2023-05-02T13:47:47.886Z,102399.84
2023-05-02T13:50:14.537Z,102402.53
2023-05-02T13:52:41.122Z,102399.03
2023-05-02T13:55:08.144Z,102395.16
2023-05-02T13:57:34.593Z,102399.34
2023-05-02T14:00:01.236Z,102401.91
2023-05-02T14:02:28.814Z,102411.19
2023-05-02T14:04:55.486Z,102411.72
2023-05-02T14:07:22.715Z,102412.88
2023-05-02T14:09:49.260Z,102416.94
2023-05-02T14:12:15.998Z,102416.56
2023-05-02T14:14:42.381Z,102406.72
2023-05-02T14:17:08.830Z,102407.16
2023-05-02T14:19:35.712Z,102408.06
2023-05-02T14:22:02.212Z,102418.66
2023-05-02T14:24:28.623Z,102418.28
2023-05-02T14:26:55.535Z,102400.06
2023-05-02T14:29:21.999Z,102398.63
2023-05-02T14:31:48.602Z,102402.41
2023-05-02T14:34:15.194Z,102413.31
2023-05-02T14:36:41.708Z,102409.91
2023-05-02T14:39:08.112Z,102408.78
2023-05-02T14:41:34.562Z,102399.47
2023-05-02T14:44:00.995Z,102408.38
2023-05-02T14:46:27.449Z,102416.31
2023-05-02T14:48:53.845Z,102416.81
2023-05-02T14:51:20.371Z,102419.06
2023-05-02T14:53:48.701Z,102415.75
2023-05-02T14:56:17.159Z,102421.00
2023-05-02T14:58:43.660Z,102419.72
2023-05-02T15:01:17.796Z,102420.41
2023-05-02T15:04:04.358Z,102415.97
2023-05-02T15:06:32.670Z,102412.63
2023-05-02T15:08:59.441Z,102412.00
2023-05-02T15:11:26.050Z,102414.53
2023-05-02T15:13:52.472Z,102412.25
2023-05-02T15:16:19.007Z,102415.13
2023-05-02T15:18:45.697Z,102404.28
2023-05-02T15:21:12.409Z,102407.22
2023-05-02T15:23:39.129Z,102409.09
2023-05-02T15:26:05.615Z,102419.34
2023-05-02T15:28:32.140Z,102418.72
2023-05-02T15:30:58.633Z,102409.47
2023-05-02T15:33:25.073Z,102418.25
2023-05-02T15:35:58.054Z,102415.16
2023-05-02T15:38:25.109Z,102417.88
2023-05-02T15:40:59.438Z,102419.66
2023-05-02T15:43:26.916Z,102432.41
2023-05-02T15:46:01.312Z,102431.16
2023-05-02T15:48:29.986Z,102428.84
2023-05-02T15:50:56.915Z,102437.38
2023-05-02T15:53:23.859Z,102437.31
2023-05-02T15:55:51.803Z,102440.06
2023-05-02T15:58:19.158Z,102444.16
2023-05-02T16:00:47.020Z,102447.22
2023-05-02T16:03:13.882Z,102439.75
2023-05-02T16:05:40.468Z,102441.44
2023-05-02T16:08:07.253Z,102434.78
2023-05-02T16:10:36.258Z,102445.13
2023-05-02T16:13:02.732Z,102443.75
2023-05-02T16:15:30.637Z,102440.53
2023-05-02T16:17:57.380Z,102445.38
2023-05-02T16:20:23.945Z,102445.72
2023-05-02T16:22:50.451Z,102438.31
2023-05-02T16:25:17.371Z,102440.78
2023-05-02T16:27:44.318Z,102440.94
2023-05-02T16:30:11.222Z,102432.84
2023-05-02T16:32:37.825Z,102431.56
2023-05-02T16:35:10.788Z,102436.28
2023-05-02T16:37:37.545Z,102439.41
2023-05-02T16:40:05.931Z,102435.53
2023-05-02T16:42:33.007Z,102436.06
2023-05-02T16:44:59.964Z,102431.06
2023-05-02T16:47:27.984Z,102433.56
2023-05-02T16:49:58.192Z,102431.91
2023-05-02T16:52:25.466Z,102438.91
2023-05-02T16:54:51.969Z,102433.63
2023-05-02T16:57:20.940Z,102441.63
2023-05-02T16:59:48.633Z,102442.09
2023-05-02T17:02:15.810Z,102438.00
2023-05-02T17:04:42.820Z,102447.81
2023-05-02T17:07:11.743Z,102441.25
2023-05-02T17:09:39.610Z,102442.19
2023-05-02T17:12:06.959Z,102440.19
2023-05-02T17:14:33.894Z,102449.34
2023-05-02T17:17:01.198Z,102454.78
2023-05-02T17:19:27.887Z,102455.94
2023-05-02T17:21:55.058Z,102451.06
2023-05-02T17:24:21.651Z,102453.63
2023-05-02T17:26:48.676Z,102458.22
2023-05-02T17:29:15.356Z,102458.91
2023-05-02T17:31:41.914Z,102448.09
2023-05-02T17:34:08.613Z,102452.94
2023-05-02T17:36:36.286Z,102454.78
2023-05-02T17:39:03.926Z,102444.22
2023-05-02T17:41:31.375Z,102446.06
2023-05-02T17:43:57.946Z,102444.53
2023-05-02T17:46:24.413Z,102450.00
2023-05-02T17:48:52.060Z,102452.72
2023-05-02T17:51:18.570Z,102447.28
2023-05-02T17:53:45.033Z,102456.50
2023-05-02T17:56:12.973Z,102455.97
2023-05-02T17:58:39.490Z,102459.66
2023-05-02T18:01:09.924Z,102462.28
2023-05-02T18:03:38.481Z,102471.00
2023-05-02T18:06:05.583Z,102469.38
2023-05-02T18:08:32.221Z,102467.84
2023-05-02T18:11:00.030Z,102470.34
2023-05-02T18:13:27.013Z,102480.13
2023-05-02T18:16:01.516Z,102475.47
2023-05-02T18:18:28.183Z,102476.63
2023-05-02T18:20:55.861Z,102480.22
2023-05-02T18:23:22.456Z,102484.56
2023-05-02T18:25:49.010Z,102493.53
2023-05-02T18:28:15.543Z,102485.72
2023-05-02T18:30:42.058Z,102480.66
2023-05-02T18:33:09.150Z,102483.09
2023-05-02T18:35:35.928Z,102482.38
2023-05-02T18:38:02.607Z,102479.69
2023-05-02T18:40:29.118Z,102484.09
2023-05-02T18:42:55.575Z,102482.88
2023-05-02T18:45:22.059Z,102477.84
2023-05-02T18:47:50.976Z,102480.97
2023-05-02T18:50:18.140Z,102486.03
2023-05-02T18:52:44.572Z,102490.72
2023-05-02T18:55:11.542Z,102491.44
2023-05-02T18:57:38.060Z,102498.59
2023-05-02T19:00:06.442Z,102500.78
2023-05-02T19:02:33.586Z,102498.78
2023-05-02T19:07:27.859Z,102508.31
2023-05-02T19:09:54.330Z,102506.13
2023-05-02T19:12:20.815Z,102504.88
2023-05-02T19:14:47.951Z,102511.06
2023-05-02T19:17:14.382Z,102519.16
2023-05-02T19:19:41.727Z,102522.72
2023-05-02T19:22:08.220Z,102517.56
2023-05-02T19:24:36.018Z,102513.03
2023-05-02T19:27:06.764Z,102518.31
2023-05-02T19:29:34.205Z,102523.97
2023-05-02T19:32:00.747Z,102529.72
2023-05-02T19:34:28.240Z,102528.38
2023-05-02T19:36:54.918Z,102530.94
2023-05-02T19:39:21.689Z,102521.47
2023-05-02T19:41:50.165Z,102524.91
2023-05-02T19:44:18.044Z,102536.69
2023-05-02T19:46:44.570Z,102534.53
2023-05-02T19:49:11.095Z,102531.56
2023-05-02T19:51:37.617Z,102540.03
2023-05-02T19:54:04.231Z,102539.25
2023-05-02T19:56:30.653Z,102538.22
2023-05-02T19:58:58.630Z,102543.38
2023-05-02T20:01:26.699Z,102537.09
2023-05-02T20:03:53.667Z,102543.94
2023-05-02T20:06:20.389Z,102543.28
2023-05-02T20:08:46.878Z,102541.88
2023-05-02T20:11:13.505Z,102543.81
2023-05-02T20:13:39.998Z,102549.19
2023-05-02T20:16:07.482Z,102556.50
2023-05-02T20:18:34.925Z,102560.44
2023-05-02T20:21:01.529Z,102557.44
2023-05-02T20:23:28.008Z,102568.97
2023-05-02T20:25:54.902Z,102574.56
2023-05-02T20:28:21.384Z,102571.66
2023-05-02T20:30:47.917Z,102570.78
2023-05-02T20:33:16.743Z,102568.44
2023-05-02T20:35:45.078Z,102575.66
2023-05-02T20:38:11.986Z,102572.94
2023-05-02T20:40:42.701Z,102571.22
2023-05-02T20:43:09.260Z,102579.81
2023-05-02T20:45:35.799Z,102581.69
2023-05-02T20:48:02.292Z,102566.28
2023-05-02T20:50:28.781Z,102580.75
2023-05-02T20:52:55.436Z,102585.72
2023-05-02T20:55:22.973Z,102587.22
2023-05-02T20:57:53.101Z,102598.22
2023-05-02T21:00:22.446Z,102604.69
2023-05-02T21:02:49.345Z,102598.88
2023-05-02T21:05:16.106Z,102601.00
2023-05-02T21:07:42.660Z,102593.13
2023-05-02T21:10:10.823Z,102594.13
2023-05-02T21:12:37.304Z,102592.81
2023-05-02T21:15:04.062Z,102595.66
2023-05-02T21:17:30.514Z,102591.13
2023-05-02T21:19:57.034Z,102593.28
2023-05-02T21:22:23.452Z,102597.28
2023-05-02T21:24:50.377Z,102597.16
2023-05-02T21:27:16.832Z,102595.34
2023-05-02T21:29:43.375Z,102599.31
2023-05-02T21:32:10.726Z,102594.91
2023-05-02T21:34:37.391Z,102587.66
2023-05-02T21:37:04.116Z,102592.84
2023-05-02T21:39:30.581Z,102598.13
2023-05-02T21:41:57.030Z,102595.13
2023-05-02T21:44:23.524Z,102583.38
2023-05-02T21:46:50.707Z,102592.09
2023-05-02T21:49:17.202Z,102599.34
2023-05-02T21:51:43.643Z,102595.19
2023-05-02T21:54:10.112Z,102590.31
2023-05-02T21:56:36.564Z,102595.91
2023-05-02T21:59:03.433Z,102595.16
2023-05-02T22:01:30.071Z,102596.44
2023-05-02T22:03:58.078Z,102591.91
2023-05-02T22:06:25.143Z,102600.25
2023-05-02T22:08:52.787Z,102592.53
2023-05-02T22:11:21.648Z,102590.78
2023-05-02T22:13:48.468Z,102587.47
2023-05-02T22:16:15.458Z,102585.75
2023-05-02T22:18:44.661Z,102578.75
2023-05-02T22:21:12.071Z,102579.81
2023-05-02T22:23:38.570Z,102579.63
2023-05-02T22:26:05.020Z,102576.66
2023-05-02T22:28:31.605Z,102577.38
2023-05-02T22:30:58.141Z,102579.53
2023-05-02T22:33:24.992Z,102585.06
2023-05-02T22:35:51.457Z,102575.63
2023-05-02T22:38:19.768Z,102566.47
2023-05-02T22:40:46.597Z,102570.31
2023-05-02T22:43:13.244Z,102570.78
2023-05-02T22:45:39.706Z,102566.69
2023-05-02T22:48:07.139Z,102568.63
2023-05-02T22:50:33.987Z,102564.00
2023-05-02T22:53:03.726Z,102567.34
2023-05-02T22:55:30.618Z,102570.13
2023-05-02T22:57:57.175Z,102574.88
2023-05-02T23:00:24.732Z,102574.97
2023-05-02T23:02:51.397Z,102573.78
2023-05-02T23:05:17.939Z,102587.34
2023-05-02T23:07:44.394Z,102585.16
2023-05-02T23:10:10.962Z,102585.28
2023-05-02T23:12:37.479Z,102575.47
2023-05-02T23:15:04.305Z,102584.38
2023-05-02T23:17:30.788Z,102575.34
2023-05-02T23:19:57.605Z,102585.63
2023-05-02T23:22:24.124Z,102588.69
2023-05-02T23:24:50.710Z,102583.38
2023-05-02T23:27:17.135Z,102589.63
2023-05-02T23:29:43.626Z,102594.34
2023-05-02T23:32:10.173Z,102598.53
2023-05-02T23:34:37.158Z,102598.56
2023-05-02T23:37:06.180Z,102602.16
2023-05-02T23:39:33.382Z,102604.31
2023-05-02T23:42:00.688Z,102606.19
2023-05-02T23:44:27.108Z,102613.53
2023-05-02T23:46:53.738Z,102617.19
2023-05-02T23:49:21.250Z,102616.41
2023-05-02T23:51:47.827Z,102619.66
2023-05-02T23:54:14.510Z,102620.63
2023-05-02T23:56:40.949Z,102619.75
2023-05-02T23:59:07.491Z,102623.75
